EDMU weather

Gundelfingen Airport
Gundelfingen a.d.Donau, Bavaria, Germany

Public forecast

Using degrees Celsius for public forecast. Weather courtesy of forecast.io.

METAR (pilot weather report)

Closest report is Augsburg Airport, 24.4 nm (45.1 km) ESE. Retrieved 2019/09/22 09:20 UTC (0 seconds ago):

EDMA 220920Z VRB02KT CAVOK 14/10 Q1014

TAF (pilot weather forecast)

Forecast is more than 12 hours old.

Closest forecast is Augsburg Airport, 24.4 nm (45.1 km) ESE. Retrieved 2009/12/02 06:00 UTC (10 years ago):

TAF COR EDMA 020600Z 0206/0220 VRB03KT 3000 BR SCT004 PROB40 TEMPO 0206/0208 0600 FG VV002 BECMG 0208/0210 9999